Minneapolis (MSP/KMSP)

Information

Location
Minneapolis, MN
Local Time
20:46 / 8:46 pm
GMT Time
02:46 / 2:46 am
Gates
Unassigned
No FAA reported delays
METAR KMSP 170153Z 03005KT 6SM -FZRA FEW016 OVC046 M01/M04 A3000 RMK AO2 SLP172 P0001 I1001 T10111039
TAF KMSP 162339Z 1700/1806 06005KT 6SM BR SCT018 OVC035 TEMPO 1700/1704 3SM -FZRASN BR BKN018 FM170400 02005KT 5SM -SN BR OVC009 FM170800 36006KT 6SM BR OVC012 TEMPO 1708/1712 4SM -FZDZ BR OVC008 FM171500 33004KT P6SM BKN020 FM171800 VRB03KT P6SM SCT020 BKN05
  • No charts available